sensor_id;sensor_type;location;lat;lon;timestamp;P1;durP1;ratioP1;P2;durP2;ratioP2
26377;SDS011;14078;50.974;6.786;2024-03-02T00:01:27;2.47;;;2.10;;
26377;SDS011;14078;50.974;6.786;2024-03-02T00:03:54;2.30;;;2.00;;
26377;SDS011;14078;50.974;6.786;2024-03-02T00:06:21;3.35;;;1.75;;
26377;SDS011;14078;50.974;6.786;2024-03-02T00:08:49;2.72;;;1.88;;
26377;SDS011;14078;50.974;6.786;2024-03-02T00:13:44;2.38;;;1.42;;
26377;SDS011;14078;50.974;6.786;2024-03-02T00:16:11;1.98;;;1.77;;
26377;SDS011;14078;50.974;6.786;2024-03-02T00:18:38;1.55;;;1.40;;
26377;SDS011;14078;50.974;6.786;2024-03-02T00:21:05;2.43;;;1.80;;
26377;SDS011;14078;50.974;6.786;2024-03-02T00:23:35;1.83;;;1.20;;
26377;SDS011;14078;50.974;6.786;2024-03-02T00:28:30;3.15;;;1.50;;
26377;SDS011;14078;50.974;6.786;2024-03-02T00:30:59;1.20;;;1.10;;
26377;SDS011;14078;50.974;6.786;2024-03-02T00:35:59;2.38;;;1.67;;
26377;SDS011;14078;50.974;6.786;2024-03-02T00:38:28;2.70;;;1.33;;
26377;SDS011;14078;50.974;6.786;2024-03-02T00:40:55;2.25;;;1.77;;
26377;SDS011;14078;50.974;6.786;2024-03-02T00:43:42;2.83;;;1.65;;
26377;SDS011;14078;50.974;6.786;2024-03-02T00:46:13;2.03;;;1.80;;
26377;SDS011;14078;50.974;6.786;2024-03-02T00:48:46;4.82;;;2.08;;
26377;SDS011;14078;50.974;6.786;2024-03-02T00:51:17;1.50;;;1.20;;
26377;SDS011;14078;50.974;6.786;2024-03-02T00:53:43;1.98;;;1.48;;
26377;SDS011;14078;50.974;6.786;2024-03-02T00:58:37;1.67;;;1.30;;
26377;SDS011;14078;50.974;6.786;2024-03-02T01:01:06;3.97;;;1.40;;
26377;SDS011;14078;50.974;6.786;2024-03-02T01:03:33;2.67;;;1.50;;
26377;SDS011;14078;50.974;6.786;2024-03-02T01:05:59;1.92;;;1.40;;
26377;SDS011;14078;50.974;6.786;2024-03-02T01:08:27;1.73;;;1.23;;
26377;SDS011;14078;50.974;6.786;2024-03-02T01:10:53;2.30;;;1.58;;
26377;SDS011;14078;50.974;6.786;2024-03-02T01:13:21;2.75;;;1.33;;
26377;SDS011;14078;50.974;6.786;2024-03-02T01:15:48;3.10;;;1.80;;
26377;SDS011;14078;50.974;6.786;2024-03-02T01:18:16;2.28;;;1.52;;
26377;SDS011;14078;50.974;6.786;2024-03-02T01:20:43;1.98;;;1.67;;
26377;SDS011;14078;50.974;6.786;2024-03-02T01:23:10;3.65;;;1.60;;
26377;SDS011;14078;50.974;6.786;2024-03-02T01:25:36;3.13;;;1.58;;
26377;SDS011;14078;50.974;6.786;2024-03-02T01:28:05;1.67;;;1.30;;
26377;SDS011;14078;50.974;6.786;2024-03-02T01:30:32;3.03;;;2.10;;
26377;SDS011;14078;50.974;6.786;2024-03-02T01:32:58;2.55;;;1.77;;
26377;SDS011;14078;50.974;6.786;2024-03-02T01:35:26;1.80;;;1.45;;
26377;SDS011;14078;50.974;6.786;2024-03-02T01:37:53;2.42;;;1.98;;
26377;SDS011;14078;50.974;6.786;2024-03-02T01:40:20;1.80;;;1.45;;
26377;SDS011;14078;50.974;6.786;2024-03-02T01:42:46;2.33;;;1.40;;
26377;SDS011;14078;50.974;6.786;2024-03-02T01:45:13;2.85;;;1.80;;
26377;SDS011;14078;50.974;6.786;2024-03-02T01:47:40;2.38;;;1.25;;
26377;SDS011;14078;50.974;6.786;2024-03-02T01:50:07;2.60;;;1.45;;
26377;SDS011;14078;50.974;6.786;2024-03-02T01:52:37;3.28;;;1.48;;
26377;SDS011;14078;50.974;6.786;2024-03-02T01:55:05;2.30;;;1.50;;
26377;SDS011;14078;50.974;6.786;2024-03-02T01:57:32;2.33;;;1.40;;
26377;SDS011;14078;50.974;6.786;2024-03-02T01:59:59;1.80;;;1.60;;
26377;SDS011;14078;50.974;6.786;2024-03-02T02:02:26;3.80;;;1.80;;
26377;SDS011;14078;50.974;6.786;2024-03-02T02:04:53;2.10;;;1.77;;
26377;SDS011;14078;50.974;6.786;2024-03-02T02:07:20;1.60;;;1.50;;
26377;SDS011;14078;50.974;6.786;2024-03-02T02:09:48;2.42;;;1.30;;
26377;SDS011;14078;50.974;6.786;2024-03-02T02:12:14;1.40;;;1.20;;
26377;SDS011;14078;50.974;6.786;2024-03-02T02:14:46;1.60;;;1.27;;
26377;SDS011;14078;50.974;6.786;2024-03-02T02:17:13;1.60;;;1.50;;
26377;SDS011;14078;50.974;6.786;2024-03-02T02:19:40;1.98;;;1.48;;
26377;SDS011;14078;50.974;6.786;2024-03-02T02:22:08;1.60;;;1.17;;
26377;SDS011;14078;50.974;6.786;2024-03-02T02:24:35;3.33;;;1.88;;
26377;SDS011;14078;50.974;6.786;2024-03-02T02:27:05;2.53;;;1.52;;
26377;SDS011;14078;50.974;6.786;2024-03-02T02:29:32;1.63;;;1.40;;
26377;SDS011;14078;50.974;6.786;2024-03-02T02:31:59;4.53;;;1.15;;
26377;SDS011;14078;50.974;6.786;2024-03-02T02:34:25;1.93;;;1.40;;
26377;SDS011;14078;50.974;6.786;2024-03-02T02:36:52;1.50;;;1.38;;
26377;SDS011;14078;50.974;6.786;2024-03-02T02:41:48;3.10;;;1.65;;
26377;SDS011;14078;50.974;6.786;2024-03-02T02:44:15;1.30;;;1.10;;
26377;SDS011;14078;50.974;6.786;2024-03-02T02:46:41;1.48;;;1.25;;
26377;SDS011;14078;50.974;6.786;2024-03-02T02:49:08;3.35;;;1.10;;
26377;SDS011;14078;50.974;6.786;2024-03-02T02:51:35;1.90;;;1.38;;
26377;SDS011;14078;50.974;6.786;2024-03-02T02:54:02;2.35;;;1.38;;
26377;SDS011;14078;50.974;6.786;2024-03-02T02:56:30;1.90;;;1.20;;
26377;SDS011;14078;50.974;6.786;2024-03-02T02:58:56;2.17;;;1.08;;
26377;SDS011;14078;50.974;6.786;2024-03-02T03:06:17;1.55;;;0.90;;
26377;SDS011;14078;50.974;6.786;2024-03-02T03:08:43;1.77;;;1.00;;
26377;SDS011;14078;50.974;6.786;2024-03-02T03:11:10;1.20;;;1.10;;
26377;SDS011;14078;50.974;6.786;2024-03-02T03:13:38;1.75;;;0.95;;
26377;SDS011;14078;50.974;6.786;2024-03-02T03:16:05;1.98;;;1.20;;
26377;SDS011;14078;50.974;6.786;2024-03-02T03:18:32;1.02;;;0.90;;
26377;SDS011;14078;50.974;6.786;2024-03-02T03:20:58;2.75;;;0.90;;
26377;SDS011;14078;50.974;6.786;2024-03-02T03:23:25;1.40;;;1.05;;
26377;SDS011;14078;50.974;6.786;2024-03-02T03:25:52;2.20;;;1.17;;
26377;SDS011;14078;50.974;6.786;2024-03-02T03:28:19;4.70;;;1.30;;
26377;SDS011;14078;50.974;6.786;2024-03-02T03:30:47;2.08;;;0.90;;
26377;SDS011;14078;50.974;6.786;2024-03-02T03:33:13;1.00;;;0.80;;
26377;SDS011;14078;50.974;6.786;2024-03-02T03:35:40;1.00;;;0.88;;
26377;SDS011;14078;50.974;6.786;2024-03-02T03:38:07;1.75;;;1.25;;
26377;SDS011;14078;50.974;6.786;2024-03-02T03:40:33;2.00;;;1.70;;
26377;SDS011;14078;50.974;6.786;2024-03-02T03:43:00;1.08;;;0.90;;
26377;SDS011;14078;50.974;6.786;2024-03-02T03:45:27;2.83;;;0.88;;
26377;SDS011;14078;50.974;6.786;2024-03-02T03:50:23;1.92;;;1.20;;
26377;SDS011;14078;50.974;6.786;2024-03-02T03:52:50;1.08;;;0.98;;
26377;SDS011;14078;50.974;6.786;2024-03-02T03:55:16;1.30;;;1.10;;
26377;SDS011;14078;50.974;6.786;2024-03-02T03:57:43;1.80;;;1.10;;
26377;SDS011;14078;50.974;6.786;2024-03-02T04:00:10;4.78;;;2.35;;
26377;SDS011;14078;50.974;6.786;2024-03-02T04:02:37;6.57;;;1.70;;
26377;SDS011;14078;50.974;6.786;2024-03-02T04:05:06;2.42;;;1.42;;
26377;SDS011;14078;50.974;6.786;2024-03-02T04:07:35;2.03;;;1.52;;
26377;SDS011;14078;50.974;6.786;2024-03-02T04:10:06;2.15;;;1.63;;
26377;SDS011;14078;50.974;6.786;2024-03-02T04:12:34;1.92;;;1.27;;
26377;SDS011;14078;50.974;6.786;2024-03-02T04:15:01;2.60;;;1.58;;
26377;SDS011;14078;50.974;6.786;2024-03-02T04:17:29;4.05;;;1.30;;
26377;SDS011;14078;50.974;6.786;2024-03-02T04:19:57;1.65;;;1.38;;
26377;SDS011;14078;50.974;6.786;2024-03-02T04:22:25;2.42;;;1.35;;
26377;SDS011;14078;50.974;6.786;2024-03-02T04:24:52;2.03;;;1.42;;
26377;SDS011;14078;50.974;6.786;2024-03-02T04:29:45;1.50;;;1.15;;
26377;SDS011;14078;50.974;6.786;2024-03-02T04:32:11;1.58;;;1.27;;
26377;SDS011;14078;50.974;6.786;2024-03-02T04:34:38;1.20;;;1.10;;
26377;SDS011;14078;50.974;6.786;2024-03-02T04:37:05;2.75;;;1.33;;
26377;SDS011;14078;50.974;6.786;2024-03-02T04:39:34;1.90;;;1.20;;
26377;SDS011;14078;50.974;6.786;2024-03-02T04:42:01;0.70;;;0.70;;
26377;SDS011;14078;50.974;6.786;2024-03-02T04:44:28;2.55;;;1.40;;
26377;SDS011;14078;50.974;6.786;2024-03-02T04:46:54;1.10;;;1.00;;
26377;SDS011;14078;50.974;6.786;2024-03-02T04:49:21;1.23;;;1.10;;
26377;SDS011;14078;50.974;6.786;2024-03-02T04:51:48;5.45;;;1.42;;
26377;SDS011;14078;50.974;6.786;2024-03-02T04:54:14;1.77;;;1.50;;
26377;SDS011;14078;50.974;6.786;2024-03-02T04:56:42;1.42;;;1.10;;
26377;SDS011;14078;50.974;6.786;2024-03-02T04:59:14;2.33;;;1.50;;
26377;SDS011;14078;50.974;6.786;2024-03-02T05:01:42;2.17;;;1.25;;
26377;SDS011;14078;50.974;6.786;2024-03-02T05:04:08;2.30;;;1.35;;
26377;SDS011;14078;50.974;6.786;2024-03-02T05:06:36;1.80;;;1.40;;
26377;SDS011;14078;50.974;6.786;2024-03-02T05:09:04;3.55;;;1.80;;
26377;SDS011;14078;50.974;6.786;2024-03-02T05:11:30;2.30;;;1.95;;
26377;SDS011;14078;50.974;6.786;2024-03-02T05:14:19;2.05;;;1.85;;
26377;SDS011;14078;50.974;6.786;2024-03-02T05:16:46;6.47;;;2.10;;
26377;SDS011;14078;50.974;6.786;2024-03-02T05:19:12;5.25;;;2.20;;
26377;SDS011;14078;50.974;6.786;2024-03-02T05:21:39;4.18;;;2.30;;
26377;SDS011;14078;50.974;6.786;2024-03-02T05:24:06;2.72;;;1.70;;
26377;SDS011;14078;50.974;6.786;2024-03-02T05:26:33;3.72;;;2.10;;
26377;SDS011;14078;50.974;6.786;2024-03-02T05:28:59;3.92;;;1.83;;
26377;SDS011;14078;50.974;6.786;2024-03-02T05:31:27;2.58;;;1.65;;
26377;SDS011;14078;50.974;6.786;2024-03-02T05:33:54;1.52;;;1.40;;
26377;SDS011;14078;50.974;6.786;2024-03-02T05:36:21;3.67;;;1.63;;
26377;SDS011;14078;50.974;6.786;2024-03-02T05:38:47;1.77;;;1.63;;
26377;SDS011;14078;50.974;6.786;2024-03-02T05:41:14;2.72;;;2.15;;
26377;SDS011;14078;50.974;6.786;2024-03-02T05:43:41;2.05;;;1.83;;
26377;SDS011;14078;50.974;6.786;2024-03-02T05:46:07;3.78;;;1.50;;
26377;SDS011;14078;50.974;6.786;2024-03-02T05:48:35;3.08;;;1.80;;
26377;SDS011;14078;50.974;6.786;2024-03-02T05:53:29;2.00;;;1.40;;
26377;SDS011;14078;50.974;6.786;2024-03-02T05:55:55;5.00;;;1.75;;
26377;SDS011;14078;50.974;6.786;2024-03-02T05:58:22;2.35;;;1.40;;
26377;SDS011;14078;50.974;6.786;2024-03-02T06:00:58;3.00;;;1.58;;
26377;SDS011;14078;50.974;6.786;2024-03-02T06:03:25;2.00;;;1.08;;
26377;SDS011;14078;50.974;6.786;2024-03-02T06:05:54;1.88;;;1.48;;
26377;SDS011;14078;50.974;6.786;2024-03-02T06:08:21;4.03;;;1.63;;
26377;SDS011;14078;50.974;6.786;2024-03-02T06:10:48;2.35;;;1.52;;
26377;SDS011;14078;50.974;6.786;2024-03-02T06:13:14;1.30;;;1.10;;
26377;SDS011;14078;50.974;6.786;2024-03-02T06:15:41;1.38;;;1.08;;
26377;SDS011;14078;50.974;6.786;2024-03-02T06:18:08;1.60;;;1.20;;
26377;SDS011;14078;50.974;6.786;2024-03-02T06:20:35;2.55;;;1.30;;
26377;SDS011;14078;50.974;6.786;2024-03-02T06:23:03;2.33;;;1.20;;
26377;SDS011;14078;50.974;6.786;2024-03-02T06:25:30;1.77;;;1.43;;
26377;SDS011;14078;50.974;6.786;2024-03-02T06:27:57;1.10;;;1.00;;
26377;SDS011;14078;50.974;6.786;2024-03-02T06:30:22;1.80;;;1.40;;
26377;SDS011;14078;50.974;6.786;2024-03-02T06:32:49;1.52;;;1.20;;
26377;SDS011;14078;50.974;6.786;2024-03-02T06:35:16;3.55;;;1.38;;
26377;SDS011;14078;50.974;6.786;2024-03-02T06:37:42;1.98;;;1.58;;
26377;SDS011;14078;50.974;6.786;2024-03-02T06:40:11;4.85;;;1.60;;
26377;SDS011;14078;50.974;6.786;2024-03-02T06:42:37;4.72;;;1.73;;
26377;SDS011;14078;50.974;6.786;2024-03-02T06:45:04;2.42;;;1.63;;
26377;SDS011;14078;50.974;6.786;2024-03-02T06:47:32;2.33;;;1.73;;
26377;SDS011;14078;50.974;6.786;2024-03-02T06:49:58;4.47;;;1.50;;
26377;SDS011;14078;50.974;6.786;2024-03-02T06:52:25;1.95;;;1.35;;
26377;SDS011;14078;50.974;6.786;2024-03-02T06:54:51;2.78;;;1.75;;
26377;SDS011;14078;50.974;6.786;2024-03-02T06:57:19;2.10;;;1.75;;
26377;SDS011;14078;50.974;6.786;2024-03-02T06:59:46;3.67;;;1.80;;
26377;SDS011;14078;50.974;6.786;2024-03-02T07:02:15;2.83;;;1.33;;
26377;SDS011;14078;50.974;6.786;2024-03-02T07:04:41;4.13;;;2.00;;
26377;SDS011;14078;50.974;6.786;2024-03-02T07:07:09;2.33;;;1.63;;
26377;SDS011;14078;50.974;6.786;2024-03-02T07:09:36;3.20;;;1.58;;
26377;SDS011;14078;50.974;6.786;2024-03-02T07:12:03;1.85;;;1.48;;
26377;SDS011;14078;50.974;6.786;2024-03-02T07:14:31;3.90;;;1.70;;
26377;SDS011;14078;50.974;6.786;2024-03-02T07:17:12;1.85;;;1.42;;
26377;SDS011;14078;50.974;6.786;2024-03-02T07:19:38;2.55;;;2.22;;
26377;SDS011;14078;50.974;6.786;2024-03-02T07:22:05;1.60;;;1.50;;
26377;SDS011;14078;50.974;6.786;2024-03-02T07:24:38;1.85;;;1.10;;
26377;SDS011;14078;50.974;6.786;2024-03-02T07:27:06;2.88;;;1.80;;
26377;SDS011;14078;50.974;6.786;2024-03-02T07:29:34;2.45;;;1.35;;
26377;SDS011;14078;50.974;6.786;2024-03-02T07:32:02;2.15;;;1.25;;
26377;SDS011;14078;50.974;6.786;2024-03-02T07:34:28;2.13;;;1.30;;
26377;SDS011;14078;50.974;6.786;2024-03-02T07:36:55;4.07;;;1.48;;
26377;SDS011;14078;50.974;6.786;2024-03-02T07:39:22;1.42;;;1.00;;
26377;SDS011;14078;50.974;6.786;2024-03-02T07:41:49;1.27;;;1.10;;
26377;SDS011;14078;50.974;6.786;2024-03-02T07:44:16;1.60;;;1.25;;
26377;SDS011;14078;50.974;6.786;2024-03-02T07:46:45;4.50;;;1.17;;
26377;SDS011;14078;50.974;6.786;2024-03-02T07:49:14;1.98;;;1.50;;
26377;SDS011;14078;50.974;6.786;2024-03-02T07:54:08;3.70;;;1.40;;
26377;SDS011;14078;50.974;6.786;2024-03-02T07:56:35;3.80;;;1.75;;
26377;SDS011;14078;50.974;6.786;2024-03-02T07:59:02;2.03;;;1.20;;
26377;SDS011;14078;50.974;6.786;2024-03-02T08:01:30;4.90;;;1.05;;
26377;SDS011;14078;50.974;6.786;2024-03-02T08:03:58;4.22;;;1.60;;
26377;SDS011;14078;50.974;6.786;2024-03-02T08:06:26;3.65;;;2.08;;
26377;SDS011;14078;50.974;6.786;2024-03-02T08:08:53;3.15;;;1.42;;
26377;SDS011;14078;50.974;6.786;2024-03-02T08:11:20;1.42;;;1.00;;
26377;SDS011;14078;50.974;6.786;2024-03-02T08:13:47;1.35;;;0.98;;
26377;SDS011;14078;50.974;6.786;2024-03-02T08:16:14;2.38;;;1.25;;
26377;SDS011;14078;50.974;6.786;2024-03-02T08:18:41;2.30;;;1.05;;
26377;SDS011;14078;50.974;6.786;2024-03-02T08:21:09;2.35;;;1.25;;
26377;SDS011;14078;50.974;6.786;2024-03-02T08:23:36;4.93;;;1.27;;
26377;SDS011;14078;50.974;6.786;2024-03-02T08:26:03;1.65;;;0.98;;
26377;SDS011;14078;50.974;6.786;2024-03-02T08:28:30;1.02;;;0.65;;
26377;SDS011;14078;50.974;6.786;2024-03-02T08:30:56;1.08;;;0.60;;
26377;SDS011;14078;50.974;6.786;2024-03-02T08:33:23;1.00;;;0.70;;
26377;SDS011;14078;50.974;6.786;2024-03-02T08:35:50;1.73;;;0.80;;
26377;SDS011;14078;50.974;6.786;2024-03-02T08:38:18;1.00;;;0.70;;
26377;SDS011;14078;50.974;6.786;2024-03-02T08:40:45;2.65;;;1.15;;
26377;SDS011;14078;50.974;6.786;2024-03-02T08:45:38;1.55;;;0.75;;
26377;SDS011;14078;50.974;6.786;2024-03-02T08:48:06;1.33;;;0.90;;
26377;SDS011;14078;50.974;6.786;2024-03-02T08:50:33;1.45;;;0.60;;
26377;SDS011;14078;50.974;6.786;2024-03-02T08:53:00;0.50;;;0.40;;
26377;SDS011;14078;50.974;6.786;2024-03-02T08:55:28;1.48;;;0.40;;
26377;SDS011;14078;50.974;6.786;2024-03-02T08:57:55;0.30;;;0.30;;
26377;SDS011;14078;50.974;6.786;2024-03-02T09:00:21;1.10;;;0.50;;
26377;SDS011;14078;50.974;6.786;2024-03-02T09:02:48;0.70;;;0.40;;
26377;SDS011;14078;50.974;6.786;2024-03-02T09:05:15;0.40;;;0.38;;
26377;SDS011;14078;50.974;6.786;2024-03-02T09:07:42;0.38;;;0.38;;
26377;SDS011;14078;50.974;6.786;2024-03-02T09:10:09;0.52;;;0.40;;
26377;SDS011;14078;50.974;6.786;2024-03-02T09:15:04;3.17;;;0.60;;
26377;SDS011;14078;50.974;6.786;2024-03-02T09:17:31;2.17;;;0.65;;
26377;SDS011;14078;50.974;6.786;2024-03-02T09:19:58;2.63;;;0.60;;
26377;SDS011;14078;50.974;6.786;2024-03-02T09:22:25;1.17;;;0.43;;
26377;SDS011;14078;50.974;6.786;2024-03-02T09:24:52;0.40;;;0.40;;
26377;SDS011;14078;50.974;6.786;2024-03-02T09:27:18;0.38;;;0.38;;
26377;SDS011;14078;50.974;6.786;2024-03-02T09:29:46;3.33;;;0.47;;
26377;SDS011;14078;50.974;6.786;2024-03-02T09:32:13;1.40;;;0.55;;
26377;SDS011;14078;50.974;6.786;2024-03-02T09:34:40;3.90;;;0.50;;
26377;SDS011;14078;50.974;6.786;2024-03-02T09:37:08;1.73;;;0.80;;
26377;SDS011;14078;50.974;6.786;2024-03-02T09:39:35;0.73;;;0.40;;
26377;SDS011;14078;50.974;6.786;2024-03-02T09:42:01;3.72;;;0.47;;
26377;SDS011;14078;50.974;6.786;2024-03-02T09:44:30;2.90;;;0.68;;
26377;SDS011;14078;50.974;6.786;2024-03-02T09:46:58;0.77;;;0.30;;
26377;SDS011;14078;50.974;6.786;2024-03-02T09:49:25;0.43;;;0.43;;
26377;SDS011;14078;50.974;6.786;2024-03-02T09:51:51;0.68;;;0.40;;
26377;SDS011;14078;50.974;6.786;2024-03-02T09:54:18;1.73;;;0.60;;
26377;SDS011;14078;50.974;6.786;2024-03-02T09:56:46;2.13;;;0.50;;
26377;SDS011;14078;50.974;6.786;2024-03-02T09:59:12;0.40;;;0.40;;
26377;SDS011;14078;50.974;6.786;2024-03-02T10:01:54;1.45;;;0.50;;
26377;SDS011;14078;50.974;6.786;2024-03-02T10:04:23;1.98;;;0.57;;
26377;SDS011;14078;50.974;6.786;2024-03-02T10:06:51;3.80;;;0.50;;
26377;SDS011;14078;50.974;6.786;2024-03-02T10:09:26;0.68;;;0.40;;
26377;SDS011;14078;50.974;6.786;2024-03-02T10:11:54;0.43;;;0.40;;
26377;SDS011;14078;50.974;6.786;2024-03-02T10:14:30;2.10;;;0.32;;
26377;SDS011;14078;50.974;6.786;2024-03-02T10:17:01;1.48;;;0.55;;
26377;SDS011;14078;50.974;6.786;2024-03-02T10:19:30;0.40;;;0.40;;
26377;SDS011;14078;50.974;6.786;2024-03-02T10:21:58;0.93;;;0.40;;
26377;SDS011;14078;50.974;6.786;2024-03-02T10:24:25;0.50;;;0.40;;
26377;SDS011;14078;50.974;6.786;2024-03-02T10:26:52;2.00;;;0.40;;
26377;SDS011;14078;50.974;6.786;2024-03-02T10:31:48;0.30;;;0.30;;
26377;SDS011;14078;50.974;6.786;2024-03-02T10:34:14;1.30;;;0.50;;
26377;SDS011;14078;50.974;6.786;2024-03-02T10:36:43;2.00;;;0.40;;
26377;SDS011;14078;50.974;6.786;2024-03-02T10:39:11;1.58;;;0.60;;
26377;SDS011;14078;50.974;6.786;2024-03-02T10:41:40;2.85;;;0.52;;
26377;SDS011;14078;50.974;6.786;2024-03-02T10:44:07;0.55;;;0.38;;
26377;SDS011;14078;50.974;6.786;2024-03-02T10:46:35;0.43;;;0.40;;
26377;SDS011;14078;50.974;6.786;2024-03-02T10:49:03;2.17;;;0.77;;
26377;SDS011;14078;50.974;6.786;2024-03-02T10:51:31;0.77;;;0.40;;
26377;SDS011;14078;50.974;6.786;2024-03-02T10:54:02;0.60;;;0.43;;
26377;SDS011;14078;50.974;6.786;2024-03-02T10:56:30;0.30;;;0.30;;
26377;SDS011;14078;50.974;6.786;2024-03-02T10:59:01;1.13;;;0.30;;
26377;SDS011;14078;50.974;6.786;2024-03-02T11:01:29;1.88;;;0.68;;
26377;SDS011;14078;50.974;6.786;2024-03-02T11:06:26;2.08;;;0.40;;
26377;SDS011;14078;50.974;6.786;2024-03-02T11:08:58;1.05;;;0.57;;
26377;SDS011;14078;50.974;6.786;2024-03-02T11:11:32;0.93;;;0.45;;
26377;SDS011;14078;50.974;6.786;2024-03-02T11:14:04;0.75;;;0.60;;
26377;SDS011;14078;50.974;6.786;2024-03-02T11:16:34;0.70;;;0.50;;
26377;SDS011;14078;50.974;6.786;2024-03-02T11:19:04;1.38;;;0.52;;
26377;SDS011;14078;50.974;6.786;2024-03-02T11:21:32;5.07;;;0.50;;
26377;SDS011;14078;50.974;6.786;2024-03-02T11:23:59;3.63;;;0.60;;
26377;SDS011;14078;50.974;6.786;2024-03-02T11:26:27;1.95;;;0.60;;
26377;SDS011;14078;50.974;6.786;2024-03-02T11:28:55;2.63;;;0.57;;
26377;SDS011;14078;50.974;6.786;2024-03-02T11:31:24;1.05;;;0.63;;
26377;SDS011;14078;50.974;6.786;2024-03-02T11:34:28;1.08;;;0.50;;
26377;SDS011;14078;50.974;6.786;2024-03-02T11:36:55;0.52;;;0.43;;
26377;SDS011;14078;50.974;6.786;2024-03-02T11:39:22;3.70;;;0.60;;
26377;SDS011;14078;50.974;6.786;2024-03-02T11:41:49;0.73;;;0.50;;
26377;SDS011;14078;50.974;6.786;2024-03-02T11:44:17;2.70;;;0.80;;
26377;SDS011;14078;50.974;6.786;2024-03-02T11:46:44;0.93;;;0.50;;
26377;SDS011;14078;50.974;6.786;2024-03-02T11:49:13;0.45;;;0.40;;
26377;SDS011;14078;50.974;6.786;2024-03-02T11:51:49;1.83;;;0.55;;
26377;SDS011;14078;50.974;6.786;2024-03-02T11:54:19;1.37;;;0.50;;
26377;SDS011;14078;50.974;6.786;2024-03-02T11:56:46;1.38;;;0.80;;
26377;SDS011;14078;50.974;6.786;2024-03-02T11:59:13;2.17;;;0.75;;
26377;SDS011;14078;50.974;6.786;2024-03-02T12:01:41;1.45;;;0.90;;
26377;SDS011;14078;50.974;6.786;2024-03-02T12:04:08;2.10;;;0.90;;
26377;SDS011;14078;50.974;6.786;2024-03-02T12:06:36;2.78;;;0.93;;
26377;SDS011;14078;50.974;6.786;2024-03-02T12:09:04;2.70;;;1.58;;
26377;SDS011;14078;50.974;6.786;2024-03-02T12:11:31;0.60;;;0.60;;
26377;SDS011;14078;50.974;6.786;2024-03-02T12:13:58;1.38;;;0.60;;
26377;SDS011;14078;50.974;6.786;2024-03-02T12:16:25;0.93;;;0.77;;
26377;SDS011;14078;50.974;6.786;2024-03-02T12:18:53;1.30;;;0.70;;
26377;SDS011;14078;50.974;6.786;2024-03-02T12:21:20;2.25;;;0.93;;
26377;SDS011;14078;50.974;6.786;2024-03-02T12:23:47;3.13;;;0.90;;
26377;SDS011;14078;50.974;6.786;2024-03-02T12:26:15;1.00;;;0.82;;
26377;SDS011;14078;50.974;6.786;2024-03-02T12:28:41;0.93;;;0.75;;
26377;SDS011;14078;50.974;6.786;2024-03-02T12:31:09;1.73;;;0.70;;
26377;SDS011;14078;50.974;6.786;2024-03-02T12:33:36;2.70;;;1.08;;
26377;SDS011;14078;50.974;6.786;2024-03-02T12:36:04;1.73;;;0.80;;
26377;SDS011;14078;50.974;6.786;2024-03-02T12:38:37;0.75;;;0.60;;
26377;SDS011;14078;50.974;6.786;2024-03-02T12:41:03;4.13;;;0.93;;
26377;SDS011;14078;50.974;6.786;2024-03-02T12:43:30;1.02;;;0.90;;
26377;SDS011;14078;50.974;6.786;2024-03-02T12:45:57;0.80;;;0.70;;
26377;SDS011;14078;50.974;6.786;2024-03-02T12:48:24;0.93;;;0.60;;
26377;SDS011;14078;50.974;6.786;2024-03-02T12:50:51;1.25;;;0.60;;
26377;SDS011;14078;50.974;6.786;2024-03-02T12:53:19;1.08;;;0.85;;
26377;SDS011;14078;50.974;6.786;2024-03-02T12:58:18;0.80;;;0.70;;
26377;SDS011;14078;50.974;6.786;2024-03-02T13:00:45;0.80;;;0.60;;
26377;SDS011;14078;50.974;6.786;2024-03-02T13:03:12;0.60;;;0.60;;
26377;SDS011;14078;50.974;6.786;2024-03-02T13:05:39;0.93;;;0.70;;
26377;SDS011;14078;50.974;6.786;2024-03-02T13:08:06;1.05;;;0.75;;
26377;SDS011;14078;50.974;6.786;2024-03-02T13:10:34;1.10;;;0.60;;
26377;SDS011;14078;50.974;6.786;2024-03-02T13:13:00;1.08;;;0.77;;
26377;SDS011;14078;50.974;6.786;2024-03-02T13:15:27;0.70;;;0.68;;
26377;SDS011;14078;50.974;6.786;2024-03-02T13:17:55;0.80;;;0.80;;
26377;SDS011;14078;50.974;6.786;2024-03-02T13:20:29;1.20;;;0.85;;
26377;SDS011;14078;50.974;6.786;2024-03-02T13:22:57;0.80;;;0.80;;
26377;SDS011;14078;50.974;6.786;2024-03-02T13:25:24;1.50;;;0.85;;
26377;SDS011;14078;50.974;6.786;2024-03-02T13:27:52;1.85;;;0.85;;
26377;SDS011;14078;50.974;6.786;2024-03-02T13:30:19;0.80;;;0.80;;
26377;SDS011;14078;50.974;6.786;2024-03-02T13:32:46;0.75;;;0.65;;
26377;SDS011;14078;50.974;6.786;2024-03-02T13:35:13;1.15;;;0.70;;
26377;SDS011;14078;50.974;6.786;2024-03-02T13:37:39;0.93;;;0.70;;
26377;SDS011;14078;50.974;6.786;2024-03-02T13:40:06;2.90;;;0.80;;
26377;SDS011;14078;50.974;6.786;2024-03-02T13:42:38;3.50;;;1.02;;
26377;SDS011;14078;50.974;6.786;2024-03-02T13:45:06;0.80;;;0.70;;
26377;SDS011;14078;50.974;6.786;2024-03-02T13:54:55;0.70;;;0.70;;
26377;SDS011;14078;50.974;6.786;2024-03-02T13:59:48;5.07;;;1.48;;
26377;SDS011;14078;50.974;6.786;2024-03-02T14:02:17;1.70;;;0.80;;
26377;SDS011;14078;50.974;6.786;2024-03-02T14:04:43;1.02;;;0.80;;
26377;SDS011;14078;50.974;6.786;2024-03-02T14:07:10;2.20;;;0.80;;
26377;SDS011;14078;50.974;6.786;2024-03-02T14:09:37;0.77;;;0.70;;
26377;SDS011;14078;50.974;6.786;2024-03-02T14:12:04;1.08;;;0.70;;
26377;SDS011;14078;50.974;6.786;2024-03-02T14:14:31;1.10;;;0.60;;
26377;SDS011;14078;50.974;6.786;2024-03-02T14:16:59;0.80;;;0.75;;
26377;SDS011;14078;50.974;6.786;2024-03-02T14:19:30;1.40;;;0.70;;
26377;SDS011;14078;50.974;6.786;2024-03-02T14:21:57;1.15;;;0.75;;
26377;SDS011;14078;50.974;6.786;2024-03-02T14:24:24;2.65;;;1.20;;
26377;SDS011;14078;50.974;6.786;2024-03-02T14:26:51;1.15;;;0.70;;
26377;SDS011;14078;50.974;6.786;2024-03-02T14:29:18;3.05;;;0.90;;
26377;SDS011;14078;50.974;6.786;2024-03-02T14:31:45;3.35;;;0.70;;
26377;SDS011;14078;50.974;6.786;2024-03-02T14:34:13;3.05;;;0.68;;
26377;SDS011;14078;50.974;6.786;2024-03-02T14:39:08;1.20;;;0.98;;
26377;SDS011;14078;50.974;6.786;2024-03-02T14:41:35;1.88;;;0.90;;
26377;SDS011;14078;50.974;6.786;2024-03-02T14:44:01;1.70;;;1.60;;
26377;SDS011;14078;50.974;6.786;2024-03-02T14:46:28;0.80;;;0.70;;
26377;SDS011;14078;50.974;6.786;2024-03-02T14:48:55;1.33;;;0.73;;
26377;SDS011;14078;50.974;6.786;2024-03-02T14:51:23;1.20;;;0.90;;
26377;SDS011;14078;50.974;6.786;2024-03-02T14:53:51;1.70;;;0.60;;
26377;SDS011;14078;50.974;6.786;2024-03-02T14:56:17;1.27;;;0.70;;
26377;SDS011;14078;50.974;6.786;2024-03-02T14:58:44;0.75;;;0.63;;
26377;SDS011;14078;50.974;6.786;2024-03-02T15:01:11;0.90;;;0.75;;
26377;SDS011;14078;50.974;6.786;2024-03-02T15:03:37;1.38;;;0.63;;
26377;SDS011;14078;50.974;6.786;2024-03-02T15:06:04;1.45;;;0.95;;
26377;SDS011;14078;50.974;6.786;2024-03-02T15:08:32;0.68;;;0.65;;
26377;SDS011;14078;50.974;6.786;2024-03-02T15:11:00;0.70;;;0.70;;
26377;SDS011;14078;50.974;6.786;2024-03-02T15:13:28;0.60;;;0.60;;
26377;SDS011;14078;50.974;6.786;2024-03-02T15:15:55;2.25;;;0.75;;
26377;SDS011;14078;50.974;6.786;2024-03-02T15:18:22;1.45;;;0.63;;
26377;SDS011;14078;50.974;6.786;2024-03-02T15:20:49;0.95;;;0.60;;
26377;SDS011;14078;50.974;6.786;2024-03-02T15:23:15;0.70;;;0.52;;
26377;SDS011;14078;50.974;6.786;2024-03-02T15:25:42;3.70;;;0.70;;
26377;SDS011;14078;50.974;6.786;2024-03-02T15:28:10;2.17;;;0.70;;
26377;SDS011;14078;50.974;6.786;2024-03-02T15:30:37;0.70;;;0.70;;
26377;SDS011;14078;50.974;6.786;2024-03-02T15:33:03;1.02;;;0.90;;
26377;SDS011;14078;50.974;6.786;2024-03-02T15:35:30;1.52;;;0.77;;
26377;SDS011;14078;50.974;6.786;2024-03-02T15:37:57;1.95;;;0.90;;
26377;SDS011;14078;50.974;6.786;2024-03-02T15:40:24;1.15;;;0.90;;
26377;SDS011;14078;50.974;6.786;2024-03-02T15:42:50;1.13;;;0.90;;